Huvudsida
METAR-TAF:

METAR-TAF

Flygplatser :

Ivalos flygplats

Ivalo, Finland

latitud: 68-37N, longitud: 027-25E, höjd: 147 m

Aktuellt väderrapport

Denna rapport gjordes för 21 minuter sedan, klockan 00:50 UTC
Vind 12 kt från syd/sydväst
Temperatur 5°C
Fuktighet 75%
Tryck 1011 hPa
Sikt 10 km eller mer
lätt regn

METAR: EFIV 210050Z AUTO 21012KT 9999 -RA NSC 05/01 Q1011

Tid: 04:11 (01:11 UTC)

Väderprognos

Denna rapport gjordes för 1 timme och 40 minuter sedan, klockan 23:31 UTC
Prognos gäller från 21 kl. 00 UTC till 21 kl. 09 UTC
Vind 12 kt från syd/sydväst
Sikt 10 km eller mer
Inga moln under 1 500 m eller inga cumulonimbus
Temporärt
från 21 kl. 02 UTC till 21 kl. 06 UTC
Sikt: 7000 m
lätt regn

TAF: EFIV 202331Z 2100/2109 21012KT CAVOK TEMPO 2102/2106 7000 -RA

Aktuella väderrapporter och prognoser från 4000 flygplatser (METAR- och TAF-rapporter).

De tillgängliga stationerna syns som gula och röda prickar på kartan.

För musen över prickarna för att se namnen på stationerna.

Klicka sedan för att få väderrapporter och prognoser.

För att ändra kartan: Klicka på de gröna knapparna med ett svart kors på för att zooma in; den gröna knappen med ett streck på för att zooma ut; eller på de gröna pilarna för angränsande kartor.


METAR-TAF: